Map

Track Data

SID SEASON NUMBER BASIN SUBBASIN NAME ISO_TIME NATURE LAT LON WMO_WIND WMO_PRES WMO_AGENCY TRACK_TYPE DIST2LAND LANDFALL IFLAG USA_AGENCY USA_ATCF_ID USA_LAT USA_LON USA_RECORD USA_STATUS USA_WIND USA_PRES USA_SSHS USA_R34_NE USA_R34_SE USA_R34_SW USA_R34_NW USA_R50_NE USA_R50_SE USA_R50_SW USA_R50_NW USA_R64_NE USA_R64_SE USA_R64_SW USA_R64_NW USA_POCI USA_ROCI USA_RMW USA_EYE TOKYO_LAT TOKYO_LON TOKYO_GRADE TOKYO_WIND TOKYO_PRES TOKYO_R50_DIR TOKYO_R50_LONG TOKYO_R50_SHORT TOKYO_R30_DIR TOKYO_R30_LONG TOKYO_R30_SHORT TOKYO_LAND CMA_LAT CMA_LON CMA_CAT CMA_WIND CMA_PRES HKO_LAT HKO_LON HKO_CAT HKO_WIND HKO_PRES NEWDELHI_LAT NEWDELHI_LON NEWDELHI_GRADE NEWDELHI_WIND NEWDELHI_PRES NEWDELHI_CI NEWDELHI_DP NEWDELHI_POCI REUNION_LAT REUNION_LON REUNION_TYPE REUNION_WIND REUNION_PRES REUNION_TNUM REUNION_CI REUNION_RMW REUNION_R34_NE REUNION_R34_SE REUNION_R34_SW REUNION_R34_NW REUNION_R50_NE REUNION_R50_SE REUNION_R50_SW REUNION_R50_NW REUNION_R64_NE REUNION_R64_SE REUNION_R64_SW REUNION_R64_NW BOM_LAT BOM_LON BOM_TYPE BOM_WIND BOM_PRES BOM_TNUM BOM_CI BOM_RMW BOM_R34_NE BOM_R34_SE BOM_R34_SW BOM_R34_NW BOM_R50_NE BOM_R50_SE BOM_R50_SW BOM_R50_NW BOM_R64_NE BOM_R64_SE BOM_R64_SW BOM_R64_NW BOM_ROCI BOM_POCI BOM_EYE BOM_POS_METHOD BOM_PRES_METHOD NADI_LAT NADI_LON NADI_CAT NADI_WIND NADI_PRES WELLINGTON_LAT WELLINGTON_LON WELLINGTON_WIND WELLINGTON_PRES DS824_LAT DS824_LON DS824_STAGE DS824_WIND DS824_PRES TD9636_LAT TD9636_LON TD9636_STAGE TD9636_WIND TD9636_PRES TD9635_LAT TD9635_LON TD9635_WIND TD9635_PRES TD9635_ROCI NEUMANN_LAT NEUMANN_LON NEUMANN_CLASS NEUMANN_WIND NEUMANN_PRES MLC_LAT MLC_LON MLC_CLASS MLC_WIND MLC_PRES USA_GUST BOM_GUST BOM_GUST_PER REUNION_GUST REUNION_GUST_PER USA_SEAHGT USA_SEARAD_NE USA_SEARAD_SE USA_SEARAD_SW USA_SEARAD_NW STORM_SPEED STORM_DIR
1882069S15062 1882 12 SI MM NOT_NAMED 1882-03-10 00:00:00 TS -15.3000 62.2000 main 718 677 _________O____ -1 -15.3000 62.2000 TC 9 198
1882069S15062 1882 12 SI MM NOT_NAMED 1882-03-10 03:00:00 TS -15.7350 62.0526 main 677 622 _________P____ -1 -15.7350 62.0526 TC 10 198
1882069S15062 1882 12 SI MM NOT_NAMED 1882-03-10 06:00:00 TS -16.2000 61.9000 main 622 576 _________O____ -1 -16.2000 61.9000 TC 10 197
1882069S15062 1882 12 SI MM NOT_NAMED 1882-03-10 09:00:00 TS -16.7075 61.7425 main 568 523 _________P____ -1 -16.7075 61.7425 TC 10 196
1882069S15062 1882 12 SI MM NOT_NAMED 1882-03-10 12:00:00 TS -17.2000 61.6000 main 523 487 _________O____ -1 -17.2000 61.6000 TC 9 195
1882069S15062 1882 12 SI MM NOT_NAMED 1882-03-10 15:00:00 TS -17.6075 61.4924 main 487 454 _________P____ -1 -17.6075 61.4924 TC 8 193
1882069S15062 1882 12 SI MM NOT_NAMED 1882-03-10 18:00:00 TS -18.0000 61.4000 main 454 423 _________O____ -1 -18.0000 61.4000 TC 9 192
1882069S15062 1882 12 SI MM NOT_NAMED 1882-03-10 21:00:00 TS -18.4575 61.3000 main 418 389 _________P____ -1 -18.4575 61.3000 TC 9 192
1882069S15062 1882 12 SI MM NOT_NAMED 1882-03-11 00:00:00 TS -18.9000 61.2000 main 389 366 _________O____ -1 -18.9000 61.2000 TC 8 194
1882069S15062 1882 12 SI MM NOT_NAMED 1882-03-11 03:00:00 TS -19.2575 61.0925 main 362 343 _________P____ -1 -19.2575 61.0925 TC 7 195
1882069S15062 1882 12 SI MM NOT_NAMED 1882-03-11 06:00:00 TS -19.6000 61.0000 main 343 325 _________O____ -1 -19.6000 61.0000 TC 8 191
1882069S15062 1882 12 SI MM NOT_NAMED 1882-03-11 09:00:00 TS -20.0000 60.9424 main 325 323 _________P____ -1 -20.0000 60.9424 TC 8 187
1882069S15062 1882 12 SI MM NOT_NAMED 1882-03-11 12:00:00 TS -20.4000 60.9000 main 323 315 _________O____ -1 -20.4000 60.9000 TC 8 188
1882069S15062 1882 12 SI MM NOT_NAMED 1882-03-11 15:00:00 TS -20.7575 60.8425 main 317 317 _________P____ -1 -20.7575 60.8425 TC 7 188
1882069S15062 1882 12 SI MM NOT_NAMED 1882-03-11 18:00:00 TS -21.1000 60.8000 main 324 324 _________O____ -1 -21.1000 60.8000 TC 7 185
1882069S15062 1882 12 SI MM NOT_NAMED 1882-03-11 21:00:00 TS -21.4125 60.7850 main 335 335 _________P____ -1 -21.4125 60.7850 TC 7 0
1882069S15062 1882 12 SI MM NOT_NAMED 1882-03-12 00:00:00 TS -21.8000 60.8000 main 352 352 _________O____ -1 -21.8000 60.8000 TC 10 177
1882069S15062 1882 12 SI MM NOT_NAMED 1882-03-12 03:00:00 TS -22.3625 60.8276 main 384 384 _________P____ -1 -22.3625 60.8276 TC 12 176
1882069S15062 1882 12 SI MM NOT_NAMED 1882-03-12 06:00:00 TS -23.0000 60.9000 main 432 432 _________O____ -1 -23.0000 60.9000 TC 13 173
1882069S15062 1882 12 SI MM NOT_NAMED 1882-03-12 09:00:00 TS -23.6224 61.0052 main 485 485 _________P____ -1 -23.6224 61.0052 TC 12 167
1882069S15062 1882 12 SI MM NOT_NAMED 1882-03-12 12:00:00 TS -24.2000 61.2000 main 548 548 _________O____ -1 -24.2000 61.2000 TC 12 157
1882069S15062 1882 12 SI MM NOT_NAMED 1882-03-12 15:00:00 TS -24.6874 61.4976 main 610 610 _________P____ -1 -24.6874 61.4976 TC 11 145
1882069S15062 1882 12 SI MM NOT_NAMED 1882-03-12 18:00:00 TS -25.1000 61.9000 main 670 670 _________O____ -1 -25.1000 61.9000 TC 11 134
1882069S15062 1882 12 SI MM NOT_NAMED 1882-03-12 21:00:00 TS -25.4629 62.3795 main 737 737 _________P____ -1 -25.4629 62.3795 TC 11 128
1882069S15062 1882 12 SI MM NOT_NAMED 1882-03-13 00:00:00 TS -25.8000 62.9000 main 795 _________O____ -1 -25.8000 62.9000 TC 12 126

About IBTrACS Database

This database is a web-friendly format of International Best Track Archive for Climate Stewardship (IBTrACS), a global best track data archive curated by NOAA dating back to 1842.

Updated: 2021-12-03